Weather

BOSCOMBE DOWN (EGDM)

METAR

EGDM 231750Z AUTO 17013KT 9000 DZ BKN004/// BKN012/// 15/15 Q1007

TAF

TAF EGDM 130455Z 1306/1324 17015KT 9999 -RA BKN015 TEMPO 1306/1312 17018G28KT 6000 -RADZ BKN010 PROB30 TEMPO 1306/1315 3000 RADZ BKN006 BECMG 1312/1315 BKN008

BRISTOL AIRPORT (EGGD)

METAR

EGGD 231750Z 17010KT 150V210 7000 -DZ BKN003 15/14 Q1005

TAF

TAF TAF EGGD 231658Z 2318/2418 18009KT 9999 BKN012 TEMPO 2318/2402 4000 -SHRA BR BKN003 PROB30 TEMPO 2318/2402 0500 SHRA FG BKN001 TEMPO 2402/2408 3000 +SHRA BKN004 PROB30 TEMPO 2402/2408 18018G28KT +TSGR BKN001 BKN015CB BECMG 2408/2410 26011KT SCT012 PROB30 TEMPO 2408/2414 4000 +SHRA TS TEMPO 2414/2418 8000 RA

BRIZE NORTON (EGVN)

METAR

EGVN 231750Z 16008KT 3800 DZ SCT006 OVC012 15/14 Q1007 TEMPO 3000 DZ RMK YLO1 TEMPO YLO1

TAF

TAF EGVN 231650Z 2318/2418 17010KT 9999 BKN010 TEMPO 2318/2411 4000 RADZ SCT005 BKN008 PROB30 TEMPO 2318/2405 3000 DZ PROB30 TEMPO 2405/2410 19015G25KT 2500 +SHRA BKN008CB BECMG 2411/2414 SCT025 TEMPO 2411/2414 4000 SHRA

OXFORD (EGTK)

METAR

EGTK 231750Z 16013KT 7000 -RA FEW008 BKN010 OVC012 15/15 Q1007

Pressure charts

Click to see pressure charts
(redidrection to MetOffice website)